sensor_id;sensor_type;location;lat;lon;timestamp;P1;durP1;ratioP1;P2;durP2;ratioP2
76262;SDS011;65080;50.908;6.916;2022-11-13T00:01:16;6.70;;;5.40;;
76262;SDS011;65080;50.908;6.916;2022-11-13T00:03:46;6.23;;;4.83;;
76262;SDS011;65080;50.908;6.916;2022-11-13T00:06:14;8.70;;;5.60;;
76262;SDS011;65080;50.908;6.916;2022-11-13T00:08:43;6.60;;;5.07;;
76262;SDS011;65080;50.908;6.916;2022-11-13T00:11:13;7.50;;;5.13;;
76262;SDS011;65080;50.908;6.916;2022-11-13T00:13:44;7.73;;;5.53;;
76262;SDS011;65080;50.908;6.916;2022-11-13T00:16:13;6.90;;;5.70;;
76262;SDS011;65080;50.908;6.916;2022-11-13T00:18:44;5.40;;;4.80;;
76262;SDS011;65080;50.908;6.916;2022-11-13T00:21:13;10.43;;;5.80;;
76262;SDS011;65080;50.908;6.916;2022-11-13T00:23:43;6.80;;;5.30;;
76262;SDS011;65080;50.908;6.916;2022-11-13T00:26:13;10.17;;;5.47;;
76262;SDS011;65080;50.908;6.916;2022-11-13T00:28:43;7.90;;;6.23;;
76262;SDS011;65080;50.908;6.916;2022-11-13T00:31:12;7.17;;;5.50;;
76262;SDS011;65080;50.908;6.916;2022-11-13T00:33:41;5.83;;;5.23;;
76262;SDS011;65080;50.908;6.916;2022-11-13T00:36:31;8.07;;;5.67;;
76262;SDS011;65080;50.908;6.916;2022-11-13T00:38:59;8.50;;;5.27;;
76262;SDS011;65080;50.908;6.916;2022-11-13T00:41:27;7.43;;;5.30;;
76262;SDS011;65080;50.908;6.916;2022-11-13T00:43:55;8.17;;;6.20;;
76262;SDS011;65080;50.908;6.916;2022-11-13T00:46:23;6.13;;;5.53;;
76262;SDS011;65080;50.908;6.916;2022-11-13T00:48:53;5.57;;;4.70;;
76262;SDS011;65080;50.908;6.916;2022-11-13T00:51:21;7.27;;;5.20;;
76262;SDS011;65080;50.908;6.916;2022-11-13T00:53:50;7.03;;;5.23;;
76262;SDS011;65080;50.908;6.916;2022-11-13T00:56:18;6.20;;;5.17;;
76262;SDS011;65080;50.908;6.916;2022-11-13T00:58:47;6.37;;;5.33;;
76262;SDS011;65080;50.908;6.916;2022-11-13T01:01:15;7.13;;;5.33;;
76262;SDS011;65080;50.908;6.916;2022-11-13T01:03:45;7.70;;;5.80;;
76262;SDS011;65080;50.908;6.916;2022-11-13T01:06:16;9.60;;;5.93;;
76262;SDS011;65080;50.908;6.916;2022-11-13T01:08:46;7.77;;;5.73;;
76262;SDS011;65080;50.908;6.916;2022-11-13T01:11:15;7.27;;;5.40;;
76262;SDS011;65080;50.908;6.916;2022-11-13T01:13:46;6.63;;;5.43;;
76262;SDS011;65080;50.908;6.916;2022-11-13T01:16:16;7.83;;;5.93;;
76262;SDS011;65080;50.908;6.916;2022-11-13T01:18:45;8.60;;;5.80;;
76262;SDS011;65080;50.908;6.916;2022-11-13T01:21:16;6.23;;;5.63;;
76262;SDS011;65080;50.908;6.916;2022-11-13T01:23:45;7.23;;;5.57;;
76262;SDS011;65080;50.908;6.916;2022-11-13T01:26:15;6.53;;;5.00;;
76262;SDS011;65080;50.908;6.916;2022-11-13T01:28:44;8.23;;;6.30;;
76262;SDS011;65080;50.908;6.916;2022-11-13T01:31:14;7.40;;;6.23;;
76262;SDS011;65080;50.908;6.916;2022-11-13T01:33:43;6.07;;;5.10;;
76262;SDS011;65080;50.908;6.916;2022-11-13T01:36:13;7.30;;;6.00;;
76262;SDS011;65080;50.908;6.916;2022-11-13T01:38:44;6.30;;;5.07;;
76262;SDS011;65080;50.908;6.916;2022-11-13T01:41:15;7.23;;;4.90;;
76262;SDS011;65080;50.908;6.916;2022-11-13T01:43:49;6.93;;;5.30;;
76262;SDS011;65080;50.908;6.916;2022-11-13T01:46:20;5.97;;;5.17;;
76262;SDS011;65080;50.908;6.916;2022-11-13T01:48:52;8.30;;;5.80;;
76262;SDS011;65080;50.908;6.916;2022-11-13T01:51:25;8.10;;;6.53;;
76262;SDS011;65080;50.908;6.916;2022-11-13T01:53:58;13.37;;;5.63;;
76262;SDS011;65080;50.908;6.916;2022-11-13T01:56:29;10.53;;;5.67;;
76262;SDS011;65080;50.908;6.916;2022-11-13T01:58:57;8.00;;;5.80;;
76262;SDS011;65080;50.908;6.916;2022-11-13T02:01:30;5.83;;;5.23;;
76262;SDS011;65080;50.908;6.916;2022-11-13T02:03:58;7.17;;;6.07;;
76262;SDS011;65080;50.908;6.916;2022-11-13T02:06:27;8.33;;;5.90;;
76262;SDS011;65080;50.908;6.916;2022-11-13T02:08:59;6.43;;;5.80;;
76262;SDS011;65080;50.908;6.916;2022-11-13T02:11:27;6.90;;;5.60;;
76262;SDS011;65080;50.908;6.916;2022-11-13T02:13:56;6.57;;;5.87;;
76262;SDS011;65080;50.908;6.916;2022-11-13T02:16:25;7.97;;;5.60;;
76262;SDS011;65080;50.908;6.916;2022-11-13T02:18:54;6.73;;;5.67;;
76262;SDS011;65080;50.908;6.916;2022-11-13T02:21:26;7.17;;;6.30;;
76262;SDS011;65080;50.908;6.916;2022-11-13T02:24:16;6.33;;;5.70;;
76262;SDS011;65080;50.908;6.916;2022-11-13T02:26:50;8.13;;;6.20;;
76262;SDS011;65080;50.908;6.916;2022-11-13T02:29:22;7.90;;;6.60;;
76262;SDS011;65080;50.908;6.916;2022-11-13T02:31:51;8.37;;;5.60;;
76262;SDS011;65080;50.908;6.916;2022-11-13T02:34:19;7.77;;;6.27;;
76262;SDS011;65080;50.908;6.916;2022-11-13T02:36:47;6.53;;;5.20;;
76262;SDS011;65080;50.908;6.916;2022-11-13T02:39:17;7.37;;;5.93;;
76262;SDS011;65080;50.908;6.916;2022-11-13T02:41:45;8.90;;;6.70;;
76262;SDS011;65080;50.908;6.916;2022-11-13T02:44:13;7.00;;;5.80;;
76262;SDS011;65080;50.908;6.916;2022-11-13T02:46:41;6.80;;;5.83;;
76262;SDS011;65080;50.908;6.916;2022-11-13T02:49:10;6.60;;;5.90;;
76262;SDS011;65080;50.908;6.916;2022-11-13T02:51:38;6.93;;;5.40;;
76262;SDS011;65080;50.908;6.916;2022-11-13T02:54:06;7.80;;;5.73;;
76262;SDS011;65080;50.908;6.916;2022-11-13T02:56:42;6.13;;;5.23;;
76262;SDS011;65080;50.908;6.916;2022-11-13T02:59:10;6.90;;;5.60;;
76262;SDS011;65080;50.908;6.916;2022-11-13T03:01:38;7.73;;;5.77;;
76262;SDS011;65080;50.908;6.916;2022-11-13T03:04:07;6.30;;;5.33;;
76262;SDS011;65080;50.908;6.916;2022-11-13T03:06:35;7.90;;;6.80;;
76262;SDS011;65080;50.908;6.916;2022-11-13T03:09:03;7.87;;;6.40;;
76262;SDS011;65080;50.908;6.916;2022-11-13T03:11:31;8.43;;;5.80;;
76262;SDS011;65080;50.908;6.916;2022-11-13T03:14:01;6.57;;;5.43;;
76262;SDS011;65080;50.908;6.916;2022-11-13T03:16:29;7.23;;;6.03;;
76262;SDS011;65080;50.908;6.916;2022-11-13T03:18:57;6.37;;;5.50;;
76262;SDS011;65080;50.908;6.916;2022-11-13T03:21:25;7.57;;;5.73;;
76262;SDS011;65080;50.908;6.916;2022-11-13T03:23:53;7.50;;;5.80;;
76262;SDS011;65080;50.908;6.916;2022-11-13T03:26:21;6.50;;;5.67;;
76262;SDS011;65080;50.908;6.916;2022-11-13T03:28:50;7.10;;;5.97;;
76262;SDS011;65080;50.908;6.916;2022-11-13T03:31:19;7.50;;;6.07;;
76262;SDS011;65080;50.908;6.916;2022-11-13T03:33:50;7.10;;;5.50;;
76262;SDS011;65080;50.908;6.916;2022-11-13T03:36:18;9.10;;;5.70;;
76262;SDS011;65080;50.908;6.916;2022-11-13T03:38:47;7.30;;;5.57;;
76262;SDS011;65080;50.908;6.916;2022-11-13T03:41:15;5.97;;;5.03;;
76262;SDS011;65080;50.908;6.916;2022-11-13T03:43:43;10.23;;;6.60;;
76262;SDS011;65080;50.908;6.916;2022-11-13T03:46:11;6.10;;;5.50;;
76262;SDS011;65080;50.908;6.916;2022-11-13T03:48:41;8.70;;;5.30;;
76262;SDS011;65080;50.908;6.916;2022-11-13T03:51:09;8.60;;;6.33;;
76262;SDS011;65080;50.908;6.916;2022-11-13T03:53:37;6.73;;;5.57;;
76262;SDS011;65080;50.908;6.916;2022-11-13T03:56:05;6.67;;;5.97;;
76262;SDS011;65080;50.908;6.916;2022-11-13T03:58:34;5.80;;;5.20;;
76262;SDS011;65080;50.908;6.916;2022-11-13T04:01:06;6.43;;;5.20;;
76262;SDS011;65080;50.908;6.916;2022-11-13T04:03:34;6.37;;;5.10;;
76262;SDS011;65080;50.908;6.916;2022-11-13T04:06:03;7.03;;;5.00;;
76262;SDS011;65080;50.908;6.916;2022-11-13T04:08:32;7.50;;;5.90;;
76262;SDS011;65080;50.908;6.916;2022-11-13T04:11:04;6.27;;;5.63;;
76262;SDS011;65080;50.908;6.916;2022-11-13T04:13:33;6.90;;;5.00;;
76262;SDS011;65080;50.908;6.916;2022-11-13T04:16:01;7.10;;;5.80;;
76262;SDS011;65080;50.908;6.916;2022-11-13T04:18:30;7.10;;;5.77;;
76262;SDS011;65080;50.908;6.916;2022-11-13T04:20:59;6.90;;;5.47;;
76262;SDS011;65080;50.908;6.916;2022-11-13T04:23:29;6.53;;;5.13;;
76262;SDS011;65080;50.908;6.916;2022-11-13T04:25:57;10.23;;;5.97;;
76262;SDS011;65080;50.908;6.916;2022-11-13T04:28:25;7.37;;;5.33;;
76262;SDS011;65080;50.908;6.916;2022-11-13T04:30:54;5.67;;;5.07;;
76262;SDS011;65080;50.908;6.916;2022-11-13T04:33:23;6.37;;;5.23;;
76262;SDS011;65080;50.908;6.916;2022-11-13T04:35:52;6.13;;;5.33;;
76262;SDS011;65080;50.908;6.916;2022-11-13T04:38:20;5.77;;;5.03;;
76262;SDS011;65080;50.908;6.916;2022-11-13T04:40:49;6.03;;;5.07;;
76262;SDS011;65080;50.908;6.916;2022-11-13T04:43:37;7.17;;;5.60;;
76262;SDS011;65080;50.908;6.916;2022-11-13T04:46:05;6.10;;;5.13;;
76262;SDS011;65080;50.908;6.916;2022-11-13T04:48:33;7.20;;;5.80;;
76262;SDS011;65080;50.908;6.916;2022-11-13T04:51:01;6.37;;;5.03;;
76262;SDS011;65080;50.908;6.916;2022-11-13T04:53:29;5.83;;;5.20;;
76262;SDS011;65080;50.908;6.916;2022-11-13T04:55:58;5.17;;;4.23;;
76262;SDS011;65080;50.908;6.916;2022-11-13T04:58:26;5.53;;;4.80;;
76262;SDS011;65080;50.908;6.916;2022-11-13T05:00:55;5.53;;;5.00;;
76262;SDS011;65080;50.908;6.916;2022-11-13T05:03:24;6.27;;;4.80;;
76262;SDS011;65080;50.908;6.916;2022-11-13T05:05:52;5.40;;;4.90;;
76262;SDS011;65080;50.908;6.916;2022-11-13T05:08:27;5.60;;;4.73;;
76262;SDS011;65080;50.908;6.916;2022-11-13T05:10:56;5.57;;;4.87;;
76262;SDS011;65080;50.908;6.916;2022-11-13T05:13:26;5.90;;;5.10;;
76262;SDS011;65080;50.908;6.916;2022-11-13T05:16:00;6.70;;;5.30;;
76262;SDS011;65080;50.908;6.916;2022-11-13T05:18:29;7.10;;;5.40;;
76262;SDS011;65080;50.908;6.916;2022-11-13T05:20:57;5.83;;;4.73;;
76262;SDS011;65080;50.908;6.916;2022-11-13T05:23:25;5.37;;;4.87;;
76262;SDS011;65080;50.908;6.916;2022-11-13T05:25:59;6.00;;;5.13;;
76262;SDS011;65080;50.908;6.916;2022-11-13T05:28:30;5.50;;;4.60;;
76262;SDS011;65080;50.908;6.916;2022-11-13T05:31:02;7.00;;;4.90;;
76262;SDS011;65080;50.908;6.916;2022-11-13T05:33:31;5.53;;;4.57;;
76262;SDS011;65080;50.908;6.916;2022-11-13T05:36:00;5.90;;;5.10;;
76262;SDS011;65080;50.908;6.916;2022-11-13T05:38:28;5.80;;;5.20;;
76262;SDS011;65080;50.908;6.916;2022-11-13T05:41:01;7.60;;;4.90;;
76262;SDS011;65080;50.908;6.916;2022-11-13T05:43:31;7.63;;;4.50;;
76262;SDS011;65080;50.908;6.916;2022-11-13T05:46:01;5.93;;;4.77;;
76262;SDS011;65080;50.908;6.916;2022-11-13T05:48:30;5.20;;;4.03;;
76262;SDS011;65080;50.908;6.916;2022-11-13T05:51:00;5.00;;;3.93;;
76262;SDS011;65080;50.908;6.916;2022-11-13T05:53:29;6.67;;;5.30;;
76262;SDS011;65080;50.908;6.916;2022-11-13T05:55:59;5.30;;;4.47;;
76262;SDS011;65080;50.908;6.916;2022-11-13T05:58:28;5.70;;;4.33;;
76262;SDS011;65080;50.908;6.916;2022-11-13T06:01:05;4.97;;;4.20;;
76262;SDS011;65080;50.908;6.916;2022-11-13T06:03:35;5.00;;;4.50;;
76262;SDS011;65080;50.908;6.916;2022-11-13T06:06:05;5.93;;;4.43;;
76262;SDS011;65080;50.908;6.916;2022-11-13T06:08:35;5.70;;;4.40;;
76262;SDS011;65080;50.908;6.916;2022-11-13T06:11:04;4.80;;;4.40;;
76262;SDS011;65080;50.908;6.916;2022-11-13T06:13:33;5.37;;;4.17;;
76262;SDS011;65080;50.908;6.916;2022-11-13T06:16:02;5.60;;;4.80;;
76262;SDS011;65080;50.908;6.916;2022-11-13T06:18:33;5.43;;;4.73;;
76262;SDS011;65080;50.908;6.916;2022-11-13T06:21:02;5.47;;;4.53;;
76262;SDS011;65080;50.908;6.916;2022-11-13T06:23:32;6.13;;;4.97;;
76262;SDS011;65080;50.908;6.916;2022-11-13T06:26:01;5.27;;;4.77;;
76262;SDS011;65080;50.908;6.916;2022-11-13T06:28:31;5.33;;;4.70;;
76262;SDS011;65080;50.908;6.916;2022-11-13T06:31:03;6.90;;;5.00;;
76262;SDS011;65080;50.908;6.916;2022-11-13T06:33:33;5.87;;;5.00;;
76262;SDS011;65080;50.908;6.916;2022-11-13T06:36:02;5.70;;;4.60;;
76262;SDS011;65080;50.908;6.916;2022-11-13T06:38:31;5.97;;;4.67;;
76262;SDS011;65080;50.908;6.916;2022-11-13T06:41:00;6.33;;;4.50;;
76262;SDS011;65080;50.908;6.916;2022-11-13T06:43:29;4.80;;;4.20;;
76262;SDS011;65080;50.908;6.916;2022-11-13T06:46:01;5.33;;;4.53;;
76262;SDS011;65080;50.908;6.916;2022-11-13T06:48:30;6.20;;;4.30;;
76262;SDS011;65080;50.908;6.916;2022-11-13T06:51:00;6.40;;;4.90;;
76262;SDS011;65080;50.908;6.916;2022-11-13T06:53:29;5.00;;;4.50;;
76262;SDS011;65080;50.908;6.916;2022-11-13T06:55:59;6.20;;;4.73;;
76262;SDS011;65080;50.908;6.916;2022-11-13T06:58:27;6.37;;;5.00;;
76262;SDS011;65080;50.908;6.916;2022-11-13T07:01:03;5.70;;;4.47;;
76262;SDS011;65080;50.908;6.916;2022-11-13T07:03:32;6.27;;;5.00;;
76262;SDS011;65080;50.908;6.916;2022-11-13T07:06:02;4.97;;;4.20;;
76262;SDS011;65080;50.908;6.916;2022-11-13T07:08:31;5.40;;;4.00;;
76262;SDS011;65080;50.908;6.916;2022-11-13T07:11:00;4.97;;;4.30;;
76262;SDS011;65080;50.908;6.916;2022-11-13T07:13:28;4.53;;;4.00;;
76262;SDS011;65080;50.908;6.916;2022-11-13T07:15:59;5.90;;;5.07;;
76262;SDS011;65080;50.908;6.916;2022-11-13T07:18:41;5.70;;;4.80;;
76262;SDS011;65080;50.908;6.916;2022-11-13T07:21:11;6.73;;;4.53;;
76262;SDS011;65080;50.908;6.916;2022-11-13T07:23:39;5.60;;;4.00;;
76262;SDS011;65080;50.908;6.916;2022-11-13T07:26:08;5.77;;;5.03;;
76262;SDS011;65080;50.908;6.916;2022-11-13T07:28:37;5.27;;;4.37;;
76262;SDS011;65080;50.908;6.916;2022-11-13T07:31:06;4.50;;;3.93;;
76262;SDS011;65080;50.908;6.916;2022-11-13T07:33:34;5.10;;;4.60;;
76262;SDS011;65080;50.908;6.916;2022-11-13T07:36:02;5.30;;;4.27;;
76262;SDS011;65080;50.908;6.916;2022-11-13T07:38:32;5.07;;;4.57;;
76262;SDS011;65080;50.908;6.916;2022-11-13T07:41:01;4.10;;;3.70;;
76262;SDS011;65080;50.908;6.916;2022-11-13T07:43:30;5.10;;;3.87;;
76262;SDS011;65080;50.908;6.916;2022-11-13T07:45:58;5.17;;;4.17;;
76262;SDS011;65080;50.908;6.916;2022-11-13T07:48:27;4.80;;;4.30;;
76262;SDS011;65080;50.908;6.916;2022-11-13T07:50:58;5.67;;;4.33;;
76262;SDS011;65080;50.908;6.916;2022-11-13T07:53:27;5.37;;;4.43;;
76262;SDS011;65080;50.908;6.916;2022-11-13T07:55:59;4.80;;;4.27;;
76262;SDS011;65080;50.908;6.916;2022-11-13T07:58:28;5.40;;;4.13;;
76262;SDS011;65080;50.908;6.916;2022-11-13T08:01:01;4.83;;;4.33;;
76262;SDS011;65080;50.908;6.916;2022-11-13T08:03:30;5.90;;;4.23;;
76262;SDS011;65080;50.908;6.916;2022-11-13T08:05:59;6.70;;;4.60;;
76262;SDS011;65080;50.908;6.916;2022-11-13T08:08:28;7.03;;;4.27;;
76262;SDS011;65080;50.908;6.916;2022-11-13T08:10:57;5.83;;;4.47;;
76262;SDS011;65080;50.908;6.916;2022-11-13T08:13:26;5.80;;;4.10;;
76262;SDS011;65080;50.908;6.916;2022-11-13T08:15:57;4.27;;;3.87;;
76262;SDS011;65080;50.908;6.916;2022-11-13T08:18:25;8.00;;;4.00;;
76262;SDS011;65080;50.908;6.916;2022-11-13T08:20:54;6.00;;;4.57;;
76262;SDS011;65080;50.908;6.916;2022-11-13T08:23:22;5.13;;;4.50;;
76262;SDS011;65080;50.908;6.916;2022-11-13T08:25:50;5.43;;;4.20;;
76262;SDS011;65080;50.908;6.916;2022-11-13T08:28:18;5.27;;;4.67;;
76262;SDS011;65080;50.908;6.916;2022-11-13T08:30:48;5.90;;;5.07;;
76262;SDS011;65080;50.908;6.916;2022-11-13T08:33:16;5.60;;;4.40;;
76262;SDS011;65080;50.908;6.916;2022-11-13T08:35:50;5.50;;;4.97;;
76262;SDS011;65080;50.908;6.916;2022-11-13T08:38:20;4.97;;;4.17;;
76262;SDS011;65080;50.908;6.916;2022-11-13T08:40:48;5.03;;;4.43;;
76262;SDS011;65080;50.908;6.916;2022-11-13T08:43:17;5.97;;;4.20;;
76262;SDS011;65080;50.908;6.916;2022-11-13T08:45:45;4.53;;;4.13;;
76262;SDS011;65080;50.908;6.916;2022-11-13T08:48:15;6.17;;;5.23;;
76262;SDS011;65080;50.908;6.916;2022-11-13T08:50:45;14.33;;;5.63;;
76262;SDS011;65080;50.908;6.916;2022-11-13T08:53:17;6.70;;;5.10;;
76262;SDS011;65080;50.908;6.916;2022-11-13T08:55:45;5.77;;;3.90;;
76262;SDS011;65080;50.908;6.916;2022-11-13T08:58:13;7.97;;;5.10;;
76262;SDS011;65080;50.908;6.916;2022-11-13T09:00:41;9.03;;;5.67;;
76262;SDS011;65080;50.908;6.916;2022-11-13T09:03:10;5.63;;;4.13;;
76262;SDS011;65080;50.908;6.916;2022-11-13T09:05:39;7.33;;;6.40;;
76262;SDS011;65080;50.908;6.916;2022-11-13T09:08:07;5.87;;;5.10;;
76262;SDS011;65080;50.908;6.916;2022-11-13T09:10:36;5.83;;;5.20;;
76262;SDS011;65080;50.908;6.916;2022-11-13T09:13:04;9.00;;;6.43;;
76262;SDS011;65080;50.908;6.916;2022-11-13T09:15:35;5.73;;;4.00;;
76262;SDS011;65080;50.908;6.916;2022-11-13T09:18:05;4.80;;;2.90;;
76262;SDS011;65080;50.908;6.916;2022-11-13T09:20:33;3.40;;;3.10;;
76262;SDS011;65080;50.908;6.916;2022-11-13T09:23:03;4.60;;;3.20;;
76262;SDS011;65080;50.908;6.916;2022-11-13T09:25:34;3.33;;;2.60;;
76262;SDS011;65080;50.908;6.916;2022-11-13T09:28:04;4.57;;;2.33;;
76262;SDS011;65080;50.908;6.916;2022-11-13T09:30:33;2.93;;;2.63;;
76262;SDS011;65080;50.908;6.916;2022-11-13T09:33:01;3.30;;;2.57;;
76262;SDS011;65080;50.908;6.916;2022-11-13T09:35:29;3.13;;;2.30;;
76262;SDS011;65080;50.908;6.916;2022-11-13T09:38:03;5.20;;;2.63;;
76262;SDS011;65080;50.908;6.916;2022-11-13T09:40:38;4.10;;;2.53;;
76262;SDS011;65080;50.908;6.916;2022-11-13T09:43:16;3.17;;;2.37;;
76262;SDS011;65080;50.908;6.916;2022-11-13T09:45:53;6.20;;;2.60;;
76262;SDS011;65080;50.908;6.916;2022-11-13T09:48:26;3.10;;;2.43;;
76262;SDS011;65080;50.908;6.916;2022-11-13T09:50:59;3.13;;;2.67;;
76262;SDS011;65080;50.908;6.916;2022-11-13T09:53:33;3.80;;;2.53;;
76262;SDS011;65080;50.908;6.916;2022-11-13T09:56:06;3.70;;;1.83;;
76262;SDS011;65080;50.908;6.916;2022-11-13T09:58:47;2.20;;;1.70;;
76262;SDS011;65080;50.908;6.916;2022-11-13T10:01:20;2.40;;;2.13;;
76262;SDS011;65080;50.908;6.916;2022-11-13T10:03:54;2.30;;;1.90;;
76262;SDS011;65080;50.908;6.916;2022-11-13T10:09:25;2.60;;;2.40;;
76262;SDS011;65080;50.908;6.916;2022-11-13T10:11:59;3.27;;;2.27;;
76262;SDS011;65080;50.908;6.916;2022-11-13T10:14:34;2.80;;;1.90;;
76262;SDS011;65080;50.908;6.916;2022-11-13T10:17:06;2.77;;;2.20;;
76262;SDS011;65080;50.908;6.916;2022-11-13T10:19:41;3.10;;;1.80;;
76262;SDS011;65080;50.908;6.916;2022-11-13T10:22:19;2.70;;;1.60;;
76262;SDS011;65080;50.908;6.916;2022-11-13T10:25:01;3.23;;;1.80;;
76262;SDS011;65080;50.908;6.916;2022-11-13T10:27:36;2.70;;;1.67;;
76262;SDS011;65080;50.908;6.916;2022-11-13T10:30:07;2.93;;;1.90;;
76262;SDS011;65080;50.908;6.916;2022-11-13T10:32:43;1.57;;;1.47;;
76262;SDS011;65080;50.908;6.916;2022-11-13T10:35:18;2.27;;;1.90;;
76262;SDS011;65080;50.908;6.916;2022-11-13T10:38:04;2.70;;;2.10;;
76262;SDS011;65080;50.908;6.916;2022-11-13T10:40:37;2.10;;;1.80;;
76262;SDS011;65080;50.908;6.916;2022-11-13T10:43:12;2.30;;;1.77;;
76262;SDS011;65080;50.908;6.916;2022-11-13T10:45:41;3.40;;;1.70;;
76262;SDS011;65080;50.908;6.916;2022-11-13T10:48:19;2.40;;;2.00;;
76262;SDS011;65080;50.908;6.916;2022-11-13T10:50:52;2.10;;;1.40;;
76262;SDS011;65080;50.908;6.916;2022-11-13T10:53:22;1.77;;;1.67;;
76262;SDS011;65080;50.908;6.916;2022-11-13T10:55:55;2.67;;;1.50;;
76262;SDS011;65080;50.908;6.916;2022-11-13T10:58:24;2.13;;;1.77;;
76262;SDS011;65080;50.908;6.916;2022-11-13T11:00:52;1.77;;;1.67;;
76262;SDS011;65080;50.908;6.916;2022-11-13T11:03:21;3.60;;;1.80;;
76262;SDS011;65080;50.908;6.916;2022-11-13T11:05:51;2.70;;;2.00;;
76262;SDS011;65080;50.908;6.916;2022-11-13T11:08:21;1.90;;;1.53;;
76262;SDS011;65080;50.908;6.916;2022-11-13T11:10:56;2.80;;;2.03;;
76262;SDS011;65080;50.908;6.916;2022-11-13T11:13:43;1.50;;;1.40;;
76262;SDS011;65080;50.908;6.916;2022-11-13T11:16:13;3.30;;;1.50;;
76262;SDS011;65080;50.908;6.916;2022-11-13T11:18:48;2.20;;;1.70;;
76262;SDS011;65080;50.908;6.916;2022-11-13T11:21:21;3.47;;;1.60;;
76262;SDS011;65080;50.908;6.916;2022-11-13T11:23:55;1.93;;;1.77;;
76262;SDS011;65080;50.908;6.916;2022-11-13T11:26:30;2.97;;;1.80;;
76262;SDS011;65080;50.908;6.916;2022-11-13T11:29:05;2.73;;;2.03;;
76262;SDS011;65080;50.908;6.916;2022-11-13T11:31:41;1.93;;;1.77;;
76262;SDS011;65080;50.908;6.916;2022-11-13T11:34:16;3.97;;;2.40;;
76262;SDS011;65080;50.908;6.916;2022-11-13T11:36:51;3.60;;;1.63;;
76262;SDS011;65080;50.908;6.916;2022-11-13T11:39:27;2.00;;;1.63;;
76262;SDS011;65080;50.908;6.916;2022-11-13T11:42:07;3.40;;;1.83;;
76262;SDS011;65080;50.908;6.916;2022-11-13T11:44:46;3.13;;;1.90;;
76262;SDS011;65080;50.908;6.916;2022-11-13T11:47:21;2.50;;;1.70;;
76262;SDS011;65080;50.908;6.916;2022-11-13T11:49:49;2.17;;;1.97;;
76262;SDS011;65080;50.908;6.916;2022-11-13T11:52:24;2.53;;;1.80;;
76262;SDS011;65080;50.908;6.916;2022-11-13T11:58:31;2.27;;;1.90;;
76262;SDS011;65080;50.908;6.916;2022-11-13T12:01:32;3.07;;;1.73;;
76262;SDS011;65080;50.908;6.916;2022-11-13T12:04:13;3.50;;;2.20;;
76262;SDS011;65080;50.908;6.916;2022-11-13T12:06:55;2.73;;;2.07;;
76262;SDS011;65080;50.908;6.916;2022-11-13T12:09:32;2.20;;;2.00;;
76262;SDS011;65080;50.908;6.916;2022-11-13T12:12:08;5.83;;;2.00;;
76262;SDS011;65080;50.908;6.916;2022-11-13T12:14:50;2.60;;;1.87;;
76262;SDS011;65080;50.908;6.916;2022-11-13T12:17:38;2.80;;;2.27;;
76262;SDS011;65080;50.908;6.916;2022-11-13T12:20:18;4.63;;;1.90;;
76262;SDS011;65080;50.908;6.916;2022-11-13T12:22:55;2.43;;;1.70;;
76262;SDS011;65080;50.908;6.916;2022-11-13T12:25:32;3.03;;;2.00;;
76262;SDS011;65080;50.908;6.916;2022-11-13T12:28:09;2.00;;;1.43;;
76262;SDS011;65080;50.908;6.916;2022-11-13T12:30:45;2.93;;;2.00;;
76262;SDS011;65080;50.908;6.916;2022-11-13T12:33:22;2.30;;;2.10;;
76262;SDS011;65080;50.908;6.916;2022-11-13T12:35:58;2.43;;;1.70;;
76262;SDS011;65080;50.908;6.916;2022-11-13T12:38:30;2.30;;;1.60;;
76262;SDS011;65080;50.908;6.916;2022-11-13T12:41:06;1.63;;;1.53;;
76262;SDS011;65080;50.908;6.916;2022-11-13T12:46:35;2.20;;;1.73;;
76262;SDS011;65080;50.908;6.916;2022-11-13T12:49:21;2.10;;;1.63;;
76262;SDS011;65080;50.908;6.916;2022-11-13T12:51:56;3.37;;;1.97;;
76262;SDS011;65080;50.908;6.916;2022-11-13T12:54:25;4.30;;;1.90;;
76262;SDS011;65080;50.908;6.916;2022-11-13T12:57:18;3.00;;;1.90;;
76262;SDS011;65080;50.908;6.916;2022-11-13T12:59:56;2.33;;;1.83;;
76262;SDS011;65080;50.908;6.916;2022-11-13T13:02:31;2.03;;;1.50;;
76262;SDS011;65080;50.908;6.916;2022-11-13T13:08:16;2.10;;;1.83;;
76262;SDS011;65080;50.908;6.916;2022-11-13T13:11:02;2.93;;;2.07;;
76262;SDS011;65080;50.908;6.916;2022-11-13T13:13:39;2.47;;;1.97;;
76262;SDS011;65080;50.908;6.916;2022-11-13T13:16:19;1.83;;;1.70;;
76262;SDS011;65080;50.908;6.916;2022-11-13T13:18:51;2.53;;;1.80;;
76262;SDS011;65080;50.908;6.916;2022-11-13T13:21:19;4.30;;;1.90;;
76262;SDS011;65080;50.908;6.916;2022-11-13T13:23:49;2.07;;;1.67;;
76262;SDS011;65080;50.908;6.916;2022-11-13T13:26:19;2.17;;;1.60;;
76262;SDS011;65080;50.908;6.916;2022-11-13T13:28:49;3.67;;;1.77;;
76262;SDS011;65080;50.908;6.916;2022-11-13T13:31:28;2.20;;;1.57;;
76262;SDS011;65080;50.908;6.916;2022-11-13T13:34:18;2.40;;;1.47;;
76262;SDS011;65080;50.908;6.916;2022-11-13T13:37:01;2.63;;;1.90;;
76262;SDS011;65080;50.908;6.916;2022-11-13T13:39:39;2.93;;;1.70;;
76262;SDS011;65080;50.908;6.916;2022-11-13T13:42:19;2.83;;;1.83;;
76262;SDS011;65080;50.908;6.916;2022-11-13T13:47:52;3.27;;;1.80;;
76262;SDS011;65080;50.908;6.916;2022-11-13T13:50:24;3.90;;;1.80;;
76262;SDS011;65080;50.908;6.916;2022-11-13T13:52:55;2.10;;;1.50;;
76262;SDS011;65080;50.908;6.916;2022-11-13T13:55:25;2.27;;;1.90;;
76262;SDS011;65080;50.908;6.916;2022-11-13T13:57:57;1.90;;;1.50;;
76262;SDS011;65080;50.908;6.916;2022-11-13T14:00:31;2.90;;;1.63;;
76262;SDS011;65080;50.908;6.916;2022-11-13T14:03:00;3.23;;;2.17;;
76262;SDS011;65080;50.908;6.916;2022-11-13T14:05:30;2.07;;;1.70;;
76262;SDS011;65080;50.908;6.916;2022-11-13T14:08:00;2.10;;;1.60;;
76262;SDS011;65080;50.908;6.916;2022-11-13T14:10:34;3.97;;;1.70;;
76262;SDS011;65080;50.908;6.916;2022-11-13T14:13:03;2.00;;;1.67;;
76262;SDS011;65080;50.908;6.916;2022-11-13T14:15:32;6.87;;;1.70;;
76262;SDS011;65080;50.908;6.916;2022-11-13T14:18:05;2.57;;;1.50;;
76262;SDS011;65080;50.908;6.916;2022-11-13T14:20:43;2.40;;;1.70;;
76262;SDS011;65080;50.908;6.916;2022-11-13T14:23:16;2.00;;;1.30;;
76262;SDS011;65080;50.908;6.916;2022-11-13T14:25:49;3.50;;;1.93;;
76262;SDS011;65080;50.908;6.916;2022-11-13T14:28:19;3.03;;;1.80;;
76262;SDS011;65080;50.908;6.916;2022-11-13T14:30:53;6.30;;;1.73;;
76262;SDS011;65080;50.908;6.916;2022-11-13T14:33:24;4.13;;;1.67;;
76262;SDS011;65080;50.908;6.916;2022-11-13T14:35:58;2.00;;;1.63;;
76262;SDS011;65080;50.908;6.916;2022-11-13T14:38:27;2.10;;;1.67;;
76262;SDS011;65080;50.908;6.916;2022-11-13T14:40:59;6.07;;;2.00;;
76262;SDS011;65080;50.908;6.916;2022-11-13T14:43:29;2.67;;;2.00;;
76262;SDS011;65080;50.908;6.916;2022-11-13T14:45:59;4.17;;;2.07;;
76262;SDS011;65080;50.908;6.916;2022-11-13T14:48:29;2.10;;;1.57;;
76262;SDS011;65080;50.908;6.916;2022-11-13T14:51:00;4.80;;;2.27;;
76262;SDS011;65080;50.908;6.916;2022-11-13T14:53:31;3.37;;;2.20;;
76262;SDS011;65080;50.908;6.916;2022-11-13T14:56:02;3.17;;;2.40;;
76262;SDS011;65080;50.908;6.916;2022-11-13T14:58:35;5.13;;;2.07;;
76262;SDS011;65080;50.908;6.916;2022-11-13T15:01:14;3.10;;;2.20;;
76262;SDS011;65080;50.908;6.916;2022-11-13T15:03:44;3.50;;;2.23;;
76262;SDS011;65080;50.908;6.916;2022-11-13T15:06:14;5.03;;;2.70;;
76262;SDS011;65080;50.908;6.916;2022-11-13T15:08:44;2.80;;;1.80;;
76262;SDS011;65080;50.908;6.916;2022-11-13T15:11:14;3.30;;;1.93;;
76262;SDS011;65080;50.908;6.916;2022-11-13T15:13:43;4.23;;;2.50;;
76262;SDS011;65080;50.908;6.916;2022-11-13T15:16:13;3.17;;;2.23;;
76262;SDS011;65080;50.908;6.916;2022-11-13T15:18:45;2.97;;;2.10;;
76262;SDS011;65080;50.908;6.916;2022-11-13T15:21:17;5.03;;;2.50;;
76262;SDS011;65080;50.908;6.916;2022-11-13T15:23:45;2.90;;;2.40;;
76262;SDS011;65080;50.908;6.916;2022-11-13T15:26:13;2.70;;;1.90;;
76262;SDS011;65080;50.908;6.916;2022-11-13T15:28:41;3.73;;;2.10;;